»·PEaware :: N47MP L77-L88

N47MP :: L77-L88

FLIGHT INFORMATION

Flight Status: Arrived
Operator: Privately registered:
United States
More flights under this callsign
Pilot: Mark P. (13279)
Aircraft: Unknown
(EA55)
More flights by this aircraft type
Origin: L77 Chiriaco Summit
United States
Destination: L88 New Cuyama
United States
More flights between these airports :: More routes between these airports
Route: GMN
File this flight plan on PilotEdge
Remarks:
Altitude:
(Current/Filed)
10,500ft
Speed:
(Current/Filed)
320kts
Departed: 16-Dec-16 11:24 PM
Arrived: 17-Dec-16 12:16 AM
Distance/Time
Traveled:
212nm/0:52
Distance/Time
To Go:
Arrived

Flight Plot

Page will automatically refresh every two minutes.

Flight plan parsing failed; only flown route is shown


Map Options




Map Legend


Flown Route
Filed Route
Departure Airport
Arrival Airport
Navaid (VOR, NDB)
Fix

Horizontal Profiles

Position Reports

Time Latitude Longitude Heading Altitude Ground
Speed
16-Dec-16 23:13 33.665990 -115.703197 257 1716ft 0kts
16-Dec-16 23:14 33.665990 -115.703197 257 1716ft 0kts
16-Dec-16 23:15 33.665990 -115.703197 257 1716ft 0kts
16-Dec-16 23:16 33.665579 -115.705740 257 1717ft 80kts
16-Dec-16 23:17 33.679205 -115.752015 292 3553ft 218kts
16-Dec-16 23:18 33.707723 -115.824620 292 5594ft 249kts
16-Dec-16 23:19 33.736324 -115.899343 290 7601ft 248kts
16-Dec-16 23:20 33.765134 -115.975357 292 9607ft 254kts
16-Dec-16 23:21 33.794349 -116.052949 290 10461ft 254kts
16-Dec-16 23:22 33.822983 -116.129294 291 10462ft 256kts
16-Dec-16 23:23 33.851316 -116.205004 290 10469ft 254kts
16-Dec-16 23:24 33.880149 -116.282346 291 10486ft 254kts
16-Dec-16 23:25 33.908519 -116.358580 292 10502ft 254kts
16-Dec-16 23:26 33.937187 -116.435696 292 10513ft 254kts
16-Dec-16 23:27 33.965077 -116.510887 292 10513ft 254kts
16-Dec-16 23:28 33.993460 -116.587623 292 10512ft 254kts
16-Dec-16 23:29 34.020042 -116.659613 292 10520ft 253kts
16-Dec-16 23:30 34.046956 -116.731638 292 10547ft 252kts
16-Dec-16 23:31 34.073056 -116.802115 289 10572ft 259kts
16-Dec-16 23:32 34.099576 -116.874139 288 11910ft 238kts
16-Dec-16 23:33 34.123882 -116.940923 289 10689ft 257kts
16-Dec-16 23:34 34.150116 -117.012873 290 10582ft 260kts
16-Dec-16 23:35 34.176286 -117.084755 291 10581ft 262kts
16-Dec-16 23:36 34.203213 -117.158775 292 10581ft 263kts
16-Dec-16 23:37 34.230174 -117.233052 291 10582ft 270kts
16-Dec-16 23:38 34.260768 -117.317680 292 10580ft 297kts
16-Dec-16 23:39 34.290756 -117.400852 292 10575ft 296kts
16-Dec-16 23:40 34.322589 -117.489368 293 10569ft 300kts
16-Dec-16 23:41 34.357568 -117.586881 293 10566ft 329kts
16-Dec-16 23:42 34.393068 -117.685544 293 10580ft 328kts
16-Dec-16 23:43 34.428430 -117.783666 293 10593ft 328kts
16-Dec-16 23:44 34.461506 -117.876466 293 10601ft 328kts
16-Dec-16 23:45 34.493861 -117.967703 293 10600ft 328kts
16-Dec-16 23:46 34.525941 -118.058475 293 10600ft 328kts
16-Dec-16 23:47 34.559225 -118.152959 293 10597ft 328kts
16-Dec-16 23:48 34.592288 -118.247099 293 10593ft 328kts
16-Dec-16 23:49 34.622966 -118.334689 293 10589ft 328kts
16-Dec-16 23:50 34.655876 -118.428936 293 10591ft 327kts
16-Dec-16 23:51 34.688605 -118.522900 293 10591ft 328kts
16-Dec-16 23:52 34.713407 -118.594305 293 10591ft 327kts
16-Dec-16 23:53 34.745244 -118.685674 293 10606ft 326kts
16-Dec-16 23:54 34.770806 -118.758756 293 10614ft 326kts
16-Dec-16 23:55 34.803664 -118.853797 293 10627ft 325kts
16-Dec-16 23:56 34.820682 -118.954559 283 9597ft 262kts
16-Dec-16 23:57 34.834308 -119.039626 284 8739ft 255kts
16-Dec-16 23:58 34.848765 -119.123745 284 7893ft 254kts
16-Dec-16 23:59 34.862229 -119.207616 284 7044ft 252kts
17-Dec-16 00:00 34.875878 -119.291220 284 6218ft 251kts
17-Dec-16 00:01 34.889364 -119.373750 284 5406ft 247kts
17-Dec-16 00:02 34.902683 -119.455260 284 4598ft 245kts
17-Dec-16 00:03 34.916070 -119.537446 284 3790ft 247kts
17-Dec-16 00:04 34.926118 -119.599633 284 3158ft 139kts
17-Dec-16 00:05 34.931105 -119.630646 285 2884ft 80kts
17-Dec-16 00:06 34.935584 -119.657779 284 2655ft 82kts
17-Dec-16 00:07 34.939331 -119.684094 296 2207ft 63kts
17-Dec-16 00:08 34.941403 -119.689146 117 2207ft 0kts
17-Dec-16 00:09 34.941403 -119.689146 117 2207ft 0kts
17-Dec-16 00:10 34.941403 -119.689146 117 2207ft 0kts
17-Dec-16 00:11 34.941403 -119.689146 117 2207ft 0kts
17-Dec-16 00:12 34.941403 -119.689146 117 2207ft 0kts
17-Dec-16 00:13 34.941403 -119.689146 117 2207ft 0kts
17-Dec-16 00:14 34.941403 -119.689146 117 2207ft 0kts
17-Dec-16 00:15 34.941403 -119.689146 117 2207ft 0kts

Navigation Log

Ident Type
Flight plan parsing failed, navigation log unavailable